sensor_id;sensor_type;location;lat;lon;timestamp;pressure;altitude;pressure_sealevel;temperature;humidity
52839;BME280;39219;53.678;9.856;2022-09-01T00:02:08;102267.72;;;13.06;100.00
52839;BME280;39219;53.678;9.856;2022-09-01T00:04:36;102260.56;;;13.11;100.00
52839;BME280;39219;53.678;9.856;2022-09-01T00:07:04;102262.34;;;13.08;99.31
52839;BME280;39219;53.678;9.856;2022-09-01T00:09:31;102262.47;;;12.95;99.67
52839;BME280;39219;53.678;9.856;2022-09-01T00:11:58;102255.41;;;12.91;100.00
52839;BME280;39219;53.678;9.856;2022-09-01T00:14:28;102260.66;;;12.99;100.00
52839;BME280;39219;53.678;9.856;2022-09-01T00:16:56;102258.63;;;13.24;100.00
52839;BME280;39219;53.678;9.856;2022-09-01T00:19:23;102260.34;;;13.30;100.00
52839;BME280;39219;53.678;9.856;2022-09-01T00:21:50;102256.78;;;13.31;99.99
52839;BME280;39219;53.678;9.856;2022-09-01T00:24:17;102254.31;;;13.11;99.84
52839;BME280;39219;53.678;9.856;2022-09-01T00:26:45;102261.53;;;12.99;100.00
52839;BME280;39219;53.678;9.856;2022-09-01T00:29:11;102259.81;;;12.94;100.00
52839;BME280;39219;53.678;9.856;2022-09-01T00:31:38;102261.72;;;12.81;100.00
52839;BME280;39219;53.678;9.856;2022-09-01T00:34:06;102257.41;;;12.64;100.00
52839;BME280;39219;53.678;9.856;2022-09-01T00:36:33;102250.41;;;12.52;100.00
52839;BME280;39219;53.678;9.856;2022-09-01T00:38:59;102253.09;;;12.49;100.00
52839;BME280;39219;53.678;9.856;2022-09-01T00:41:28;102248.72;;;12.39;100.00
52839;BME280;39219;53.678;9.856;2022-09-01T00:43:57;102251.44;;;12.33;100.00
52839;BME280;39219;53.678;9.856;2022-09-01T00:46:26;102254.16;;;12.20;100.00
52839;BME280;39219;53.678;9.856;2022-09-01T00:48:59;102252.41;;;12.19;100.00
52839;BME280;39219;53.678;9.856;2022-09-01T00:51:28;102255.06;;;12.19;100.00
52839;BME280;39219;53.678;9.856;2022-09-01T00:53:56;102245.25;;;12.27;100.00
52839;BME280;39219;53.678;9.856;2022-09-01T00:56:24;102247.91;;;12.26;100.00
52839;BME280;39219;53.678;9.856;2022-09-01T00:58:51;102243.50;;;12.23;100.00
52839;BME280;39219;53.678;9.856;2022-09-01T01:01:19;102240.75;;;12.34;100.00
52839;BME280;39219;53.678;9.856;2022-09-01T01:03:45;102249.66;;;12.32;100.00
52839;BME280;39219;53.678;9.856;2022-09-01T01:06:13;102243.44;;;12.31;100.00
52839;BME280;39219;53.678;9.856;2022-09-01T01:08:44;102243.47;;;12.29;100.00
52839;BME280;39219;53.678;9.856;2022-09-01T01:11:23;102235.53;;;12.20;100.00
52839;BME280;39219;53.678;9.856;2022-09-01T01:13:52;102244.34;;;12.28;100.00
52839;BME280;39219;53.678;9.856;2022-09-01T01:16:21;102240.78;;;12.31;100.00
52839;BME280;39219;53.678;9.856;2022-09-01T01:18:48;102239.88;;;12.34;100.00
52839;BME280;39219;53.678;9.856;2022-09-01T01:21:19;102246.03;;;12.42;100.00
52839;BME280;39219;53.678;9.856;2022-09-01T01:26:41;102240.66;;;12.48;100.00
52839;BME280;39219;53.678;9.856;2022-09-01T01:29:09;102231.00;;;12.32;100.00
52839;BME280;39219;53.678;9.856;2022-09-01T01:31:36;102237.28;;;12.24;100.00
52839;BME280;39219;53.678;9.856;2022-09-01T01:34:03;102239.97;;;12.18;100.00
52839;BME280;39219;53.678;9.856;2022-09-01T01:36:34;102241.84;;;11.96;100.00
52839;BME280;39219;53.678;9.856;2022-09-01T01:39:04;102245.44;;;11.89;100.00
52839;BME280;39219;53.678;9.856;2022-09-01T01:41:32;102245.41;;;11.99;100.00
52839;BME280;39219;53.678;9.856;2022-09-01T01:44:03;102240.00;;;12.12;100.00
52839;BME280;39219;53.678;9.856;2022-09-01T01:46:31;102248.03;;;12.09;100.00
52839;BME280;39219;53.678;9.856;2022-09-01T01:48:58;102248.81;;;12.26;100.00
52839;BME280;39219;53.678;9.856;2022-09-01T01:51:27;102244.47;;;12.08;100.00
52839;BME280;39219;53.678;9.856;2022-09-01T01:53:56;102248.13;;;11.82;100.00
52839;BME280;39219;53.678;9.856;2022-09-01T01:56:26;102238.44;;;11.67;100.00
52839;BME280;39219;53.678;9.856;2022-09-01T01:58:54;102242.06;;;11.55;100.00
52839;BME280;39219;53.678;9.856;2022-09-01T02:01:24;102247.38;;;11.49;100.00
52839;BME280;39219;53.678;9.856;2022-09-01T02:03:53;102245.63;;;11.34;100.00
52839;BME280;39219;53.678;9.856;2022-09-01T02:06:21;102244.78;;;11.31;100.00
52839;BME280;39219;53.678;9.856;2022-09-01T02:08:50;102247.47;;;11.26;100.00
52839;BME280;39219;53.678;9.856;2022-09-01T02:11:18;102238.63;;;11.18;100.00
52839;BME280;39219;53.678;9.856;2022-09-01T02:13:45;102239.50;;;11.07;100.00
52839;BME280;39219;53.678;9.856;2022-09-01T02:16:12;102251.03;;;11.05;100.00
52839;BME280;39219;53.678;9.856;2022-09-01T02:18:44;102242.19;;;10.98;100.00
52839;BME280;39219;53.678;9.856;2022-09-01T02:21:14;102245.72;;;10.94;100.00
52839;BME280;39219;53.678;9.856;2022-09-01T02:23:45;102238.66;;;10.90;100.00
52839;BME280;39219;53.678;9.856;2022-09-01T02:26:12;102236.00;;;10.79;100.00
52839;BME280;39219;53.678;9.856;2022-09-01T02:28:41;102241.31;;;10.77;100.00
52839;BME280;39219;53.678;9.856;2022-09-01T02:31:09;102233.34;;;10.74;100.00
52839;BME280;39219;53.678;9.856;2022-09-01T02:33:36;102243.09;;;10.71;100.00
52839;BME280;39219;53.678;9.856;2022-09-01T02:36:09;102241.31;;;10.63;100.00
52839;BME280;39219;53.678;9.856;2022-09-01T02:38:37;102236.88;;;10.61;100.00
52839;BME280;39219;53.678;9.856;2022-09-01T02:41:06;102241.31;;;10.60;100.00
52839;BME280;39219;53.678;9.856;2022-09-01T02:43:32;102234.22;;;10.42;100.00
52839;BME280;39219;53.678;9.856;2022-09-01T02:46:00;102239.53;;;10.39;100.00
52839;BME280;39219;53.678;9.856;2022-09-01T02:48:30;102236.88;;;10.47;100.00
52839;BME280;39219;53.678;9.856;2022-09-01T02:51:00;102230.66;;;10.42;100.00
52839;BME280;39219;53.678;9.856;2022-09-01T02:53:28;102232.41;;;10.33;100.00
52839;BME280;39219;53.678;9.856;2022-09-01T02:55:55;102230.63;;;10.28;100.00
52839;BME280;39219;53.678;9.856;2022-09-01T02:58:24;102228.84;;;10.20;100.00
52839;BME280;39219;53.678;9.856;2022-09-01T03:00:51;102225.31;;;10.17;100.00
52839;BME280;39219;53.678;9.856;2022-09-01T03:03:18;102237.69;;;10.16;100.00
52839;BME280;39219;53.678;9.856;2022-09-01T03:05:46;102234.16;;;10.13;100.00
52839;BME280;39219;53.678;9.856;2022-09-01T03:08:13;102233.25;;;10.12;100.00
52839;BME280;39219;53.678;9.856;2022-09-01T03:10:43;102234.16;;;10.13;100.00
52839;BME280;39219;53.678;9.856;2022-09-01T03:13:13;102230.63;;;10.31;100.00
52839;BME280;39219;53.678;9.856;2022-09-01T03:15:41;102237.66;;;10.10;100.00
52839;BME280;39219;53.678;9.856;2022-09-01T03:18:10;102232.34;;;9.99;100.00
52839;BME280;39219;53.678;9.856;2022-09-01T03:20:39;102227.91;;;10.00;100.00
52839;BME280;39219;53.678;9.856;2022-09-01T03:23:09;102236.75;;;9.89;100.00
52839;BME280;39219;53.678;9.856;2022-09-01T03:25:36;102236.69;;;9.78;100.00
52839;BME280;39219;53.678;9.856;2022-09-01T03:28:04;102234.94;;;9.81;100.00
52839;BME280;39219;53.678;9.856;2022-09-01T03:30:34;102236.69;;;9.74;100.00
52839;BME280;39219;53.678;9.856;2022-09-01T03:33:05;102233.13;;;9.73;100.00
52839;BME280;39219;53.678;9.856;2022-09-01T03:35:32;102234.94;;;9.76;100.00
52839;BME280;39219;53.678;9.856;2022-09-01T03:38:00;102235.84;;;9.81;100.00
52839;BME280;39219;53.678;9.856;2022-09-01T03:40:30;102224.38;;;9.96;100.00
52839;BME280;39219;53.678;9.856;2022-09-01T03:42:58;102224.38;;;10.04;100.00
52839;BME280;39219;53.678;9.856;2022-09-01T03:45:27;102225.31;;;10.14;100.00
52839;BME280;39219;53.678;9.856;2022-09-01T03:47:54;102220.88;;;10.14;100.00
52839;BME280;39219;53.678;9.856;2022-09-01T03:50:22;102221.75;;;10.12;100.00
52839;BME280;39219;53.678;9.856;2022-09-01T03:52:52;102216.41;;;9.95;100.00
52839;BME280;39219;53.678;9.856;2022-09-01T03:55:22;102220.81;;;9.99;100.00
52839;BME280;39219;53.678;9.856;2022-09-01T03:57:51;102220.81;;;9.80;100.00
52839;BME280;39219;53.678;9.856;2022-09-01T04:00:21;102224.28;;;9.70;100.00
52839;BME280;39219;53.678;9.856;2022-09-01T04:02:51;102220.75;;;9.72;100.00
52839;BME280;39219;53.678;9.856;2022-09-01T04:05:20;102226.09;;;9.78;100.00
52839;BME280;39219;53.678;9.856;2022-09-01T04:07:47;102219.91;;;9.78;100.00
52839;BME280;39219;53.678;9.856;2022-09-01T04:10:15;102227.00;;;9.85;100.00
52839;BME280;39219;53.678;9.856;2022-09-01T04:12:42;102227.03;;;9.93;100.00
52839;BME280;39219;53.678;9.856;2022-09-01T04:15:10;102223.47;;;9.83;100.00
52839;BME280;39219;53.678;9.856;2022-09-01T04:17:37;102224.31;;;9.76;100.00
52839;BME280;39219;53.678;9.856;2022-09-01T04:20:24;102220.72;;;9.58;100.00
52839;BME280;39219;53.678;9.856;2022-09-01T04:22:51;102223.41;;;9.69;100.00
52839;BME280;39219;53.678;9.856;2022-09-01T04:25:19;102226.97;;;9.77;100.00
52839;BME280;39219;53.678;9.856;2022-09-01T04:27:48;102223.41;;;9.71;100.00
52839;BME280;39219;53.678;9.856;2022-09-01T04:30:15;102222.50;;;9.62;100.00
52839;BME280;39219;53.678;9.856;2022-09-01T04:32:41;102214.56;;;9.69;100.00
52839;BME280;39219;53.678;9.856;2022-09-01T04:35:08;102226.94;;;9.67;100.00
52839;BME280;39219;53.678;9.856;2022-09-01T04:37:42;102223.34;;;9.54;100.00
52839;BME280;39219;53.678;9.856;2022-09-01T04:40:12;102224.22;;;9.50;100.00
52839;BME280;39219;53.678;9.856;2022-09-01T04:42:39;102219.78;;;9.48;100.00
52839;BME280;39219;53.678;9.856;2022-09-01T04:45:07;102228.66;;;9.58;100.00
52839;BME280;39219;53.678;9.856;2022-09-01T04:47:35;102223.34;;;9.58;100.00
52839;BME280;39219;53.678;9.856;2022-09-01T04:50:07;102221.63;;;9.63;100.00
52839;BME280;39219;53.678;9.856;2022-09-01T04:52:37;102229.63;;;9.73;100.00
52839;BME280;39219;53.678;9.856;2022-09-01T04:55:08;102228.78;;;9.88;100.00
52839;BME280;39219;53.678;9.856;2022-09-01T04:57:42;102227.88;;;9.83;100.00
52839;BME280;39219;53.678;9.856;2022-09-01T05:00:13;102228.78;;;9.83;100.00
52839;BME280;39219;53.678;9.856;2022-09-01T05:02:47;102234.09;;;9.91;100.00
52839;BME280;39219;53.678;9.856;2022-09-01T05:05:14;102235.00;;;10.04;100.00
52839;BME280;39219;53.678;9.856;2022-09-01T05:07:40;102228.81;;;10.05;100.00
52839;BME280;39219;53.678;9.856;2022-09-01T05:10:10;102229.66;;;9.98;100.00
52839;BME280;39219;53.678;9.856;2022-09-01T05:12:37;102232.34;;;9.96;100.00
52839;BME280;39219;53.678;9.856;2022-09-01T05:15:06;102231.44;;;9.99;100.00
52839;BME280;39219;53.678;9.856;2022-09-01T05:17:33;102237.66;;;10.05;100.00
52839;BME280;39219;53.678;9.856;2022-09-01T05:20:03;102237.75;;;10.72;100.00
52839;BME280;39219;53.678;9.856;2022-09-01T05:22:31;102232.63;;;12.53;100.00
52839;BME280;39219;53.678;9.856;2022-09-01T05:24:57;102243.16;;;14.81;100.00
52839;BME280;39219;53.678;9.856;2022-09-01T05:27:29;102242.75;;;16.71;98.23
52839;BME280;39219;53.678;9.856;2022-09-01T05:29:55;102238.94;;;18.36;88.43
52839;BME280;39219;53.678;9.856;2022-09-01T05:32:25;102249.88;;;19.60;83.14
52839;BME280;39219;53.678;9.856;2022-09-01T05:34:52;102248.66;;;20.83;79.30
52839;BME280;39219;53.678;9.856;2022-09-01T05:37:18;102244.72;;;21.91;72.71
52839;BME280;39219;53.678;9.856;2022-09-01T05:39:45;102259.72;;;22.54;62.49
52839;BME280;39219;53.678;9.856;2022-09-01T05:42:11;102262.28;;;23.27;59.86
52839;BME280;39219;53.678;9.856;2022-09-01T05:44:39;102263.16;;;24.27;54.71
52839;BME280;39219;53.678;9.856;2022-09-01T05:47:09;102264.97;;;24.89;50.10
52839;BME280;39219;53.678;9.856;2022-09-01T05:49:36;102271.44;;;25.17;52.07
52839;BME280;39219;53.678;9.856;2022-09-01T05:52:03;102277.50;;;25.66;49.86
52839;BME280;39219;53.678;9.856;2022-09-01T05:54:33;102271.06;;;26.38;47.39
52839;BME280;39219;53.678;9.856;2022-09-01T05:57:00;102277.22;;;26.82;45.19
52839;BME280;39219;53.678;9.856;2022-09-01T05:59:28;102283.06;;;27.16;41.77
52839;BME280;39219;53.678;9.856;2022-09-01T06:01:57;102285.47;;;27.20;42.15
52839;BME280;39219;53.678;9.856;2022-09-01T06:04:25;102280.56;;;27.52;42.41
52839;BME280;39219;53.678;9.856;2022-09-01T06:06:52;102293.28;;;27.90;39.62
52839;BME280;39219;53.678;9.856;2022-09-01T06:09:20;102283.53;;;28.12;38.85
52839;BME280;39219;53.678;9.856;2022-09-01T06:11:48;102280.47;;;28.16;39.18
52839;BME280;39219;53.678;9.856;2022-09-01T06:14:16;102284.94;;;28.17;37.16
52839;BME280;39219;53.678;9.856;2022-09-01T06:16:43;102281.22;;;28.18;38.51
52839;BME280;39219;53.678;9.856;2022-09-01T06:19:12;102283.94;;;28.67;38.02
52839;BME280;39219;53.678;9.856;2022-09-01T06:21:39;102285.00;;;29.24;36.18
52839;BME280;39219;53.678;9.856;2022-09-01T06:24:06;102293.06;;;29.03;35.71
52839;BME280;39219;53.678;9.856;2022-09-01T06:26:35;102292.78;;;28.71;38.11
52839;BME280;39219;53.678;9.856;2022-09-01T06:29:05;102295.78;;;28.43;37.96
52839;BME280;39219;53.678;9.856;2022-09-01T06:31:34;102291.53;;;28.99;36.92
52839;BME280;39219;53.678;9.856;2022-09-01T06:34:05;102289.69;;;28.75;37.75
52839;BME280;39219;53.678;9.856;2022-09-01T06:36:36;102292.50;;;28.87;37.15
52839;BME280;39219;53.678;9.856;2022-09-01T06:39:06;102292.47;;;29.22;36.82
52839;BME280;39219;53.678;9.856;2022-09-01T06:41:34;102292.78;;;29.42;35.98
52839;BME280;39219;53.678;9.856;2022-09-01T06:44:02;102292.63;;;29.89;35.85
52839;BME280;39219;53.678;9.856;2022-09-01T06:46:28;102288.78;;;30.03;35.94
52839;BME280;39219;53.678;9.856;2022-09-01T06:48:56;102290.13;;;30.09;34.83
52839;BME280;39219;53.678;9.856;2022-09-01T06:51:24;102296.81;;;30.71;34.56
52839;BME280;39219;53.678;9.856;2022-09-01T06:53:54;102296.78;;;31.56;33.56
52839;BME280;39219;53.678;9.856;2022-09-01T06:56:25;102303.44;;;32.45;32.37
52839;BME280;39219;53.678;9.856;2022-09-01T06:58:54;102303.59;;;32.93;31.10
52839;BME280;39219;53.678;9.856;2022-09-01T07:01:21;102306.81;;;33.46;30.81
52839;BME280;39219;53.678;9.856;2022-09-01T07:03:50;102307.66;;;32.69;31.54
52839;BME280;39219;53.678;9.856;2022-09-01T07:06:18;102306.00;;;33.26;30.33
52839;BME280;39219;53.678;9.856;2022-09-01T07:08:49;102306.47;;;32.52;30.03
52839;BME280;39219;53.678;9.856;2022-09-01T07:11:23;102303.16;;;31.57;31.83
52839;BME280;39219;53.678;9.856;2022-09-01T07:13:53;102300.94;;;31.41;32.77
52839;BME280;39219;53.678;9.856;2022-09-01T07:16:21;102311.28;;;31.99;31.63
52839;BME280;39219;53.678;9.856;2022-09-01T07:18:48;102308.50;;;32.30;31.70
52839;BME280;39219;53.678;9.856;2022-09-01T07:21:15;102311.72;;;31.95;31.35
52839;BME280;39219;53.678;9.856;2022-09-01T07:23:42;102303.56;;;31.21;32.90
52839;BME280;39219;53.678;9.856;2022-09-01T07:26:09;102313.63;;;30.99;32.42
52839;BME280;39219;53.678;9.856;2022-09-01T07:28:40;102310.56;;;30.60;32.64
52839;BME280;39219;53.678;9.856;2022-09-01T07:31:06;102317.91;;;30.48;32.27
52839;BME280;39219;53.678;9.856;2022-09-01T07:33:34;102309.06;;;29.55;34.93
52839;BME280;39219;53.678;9.856;2022-09-01T07:36:00;102302.94;;;29.51;33.43
52839;BME280;39219;53.678;9.856;2022-09-01T07:38:28;102306.44;;;29.42;33.40
52839;BME280;39219;53.678;9.856;2022-09-01T07:40:55;102307.94;;;29.46;33.70
52839;BME280;39219;53.678;9.856;2022-09-01T07:43:23;102315.16;;;29.59;33.37
52839;BME280;39219;53.678;9.856;2022-09-01T07:45:54;102306.66;;;29.28;34.19
52839;BME280;39219;53.678;9.856;2022-09-01T07:48:25;102315.41;;;28.97;35.61
52839;BME280;39219;53.678;9.856;2022-09-01T07:50:54;102312.66;;;28.97;37.22
52839;BME280;39219;53.678;9.856;2022-09-01T07:53:24;102318.47;;;28.92;36.85
52839;BME280;39219;53.678;9.856;2022-09-01T07:55:52;102320.66;;;29.23;36.07
52839;BME280;39219;53.678;9.856;2022-09-01T07:58:21;102318.28;;;29.65;34.46
52839;BME280;39219;53.678;9.856;2022-09-01T08:00:50;102312.66;;;29.55;34.09
52839;BME280;39219;53.678;9.856;2022-09-01T08:03:22;102316.34;;;28.85;33.02
52839;BME280;39219;53.678;9.856;2022-09-01T08:05:50;102325.91;;;28.66;34.68
52839;BME280;39219;53.678;9.856;2022-09-01T08:08:22;102317.81;;;28.03;36.41
52839;BME280;39219;53.678;9.856;2022-09-01T08:10:49;102323.53;;;28.13;34.40
52839;BME280;39219;53.678;9.856;2022-09-01T08:13:16;102327.97;;;28.01;34.93
52839;BME280;39219;53.678;9.856;2022-09-01T08:15:43;102322.78;;;27.46;35.14
52839;BME280;39219;53.678;9.856;2022-09-01T08:18:11;102319.97;;;27.60;36.65
52839;BME280;39219;53.678;9.856;2022-09-01T08:20:39;102327.13;;;28.13;33.50
52839;BME280;39219;53.678;9.856;2022-09-01T08:23:09;102323.13;;;27.80;33.36
52839;BME280;39219;53.678;9.856;2022-09-01T08:25:37;102321.59;;;27.63;33.21
52839;BME280;39219;53.678;9.856;2022-09-01T08:28:04;102314.56;;;27.20;33.27
52839;BME280;39219;53.678;9.856;2022-09-01T08:30:31;102320.03;;;26.52;35.02
52839;BME280;39219;53.678;9.856;2022-09-01T08:32:59;102311.97;;;26.78;35.32
52839;BME280;39219;53.678;9.856;2022-09-01T08:35:26;102316.53;;;27.18;36.15
52839;BME280;39219;53.678;9.856;2022-09-01T08:37:55;102313.47;;;28.37;33.65
52839;BME280;39219;53.678;9.856;2022-09-01T08:40:22;102324.06;;;28.91;32.34
52839;BME280;39219;53.678;9.856;2022-09-01T08:42:55;102315.69;;;28.57;31.30
52839;BME280;39219;53.678;9.856;2022-09-01T08:45:28;102318.25;;;28.10;31.60
52839;BME280;39219;53.678;9.856;2022-09-01T08:48:00;102315.38;;;27.48;32.53
52839;BME280;39219;53.678;9.856;2022-09-01T08:50:32;102318.34;;;26.92;33.61
52839;BME280;39219;53.678;9.856;2022-09-01T08:53:05;102322.81;;;26.93;33.88
52839;BME280;39219;53.678;9.856;2022-09-01T08:55:39;102318.41;;;26.77;33.28
52839;BME280;39219;53.678;9.856;2022-09-01T08:58:09;102308.59;;;27.15;33.59
52839;BME280;39219;53.678;9.856;2022-09-01T09:00:38;102317.63;;;26.75;34.38
52839;BME280;39219;53.678;9.856;2022-09-01T09:03:16;102318.28;;;25.95;35.36
52839;BME280;39219;53.678;9.856;2022-09-01T09:06:01;102315.56;;;26.24;34.98
52839;BME280;39219;53.678;9.856;2022-09-01T09:11:40;102307.69;;;27.27;35.06
52839;BME280;39219;53.678;9.856;2022-09-01T09:14:18;102317.09;;;27.88;31.33
52839;BME280;39219;53.678;9.856;2022-09-01T09:16:49;102310.00;;;27.72;31.97
52839;BME280;39219;53.678;9.856;2022-09-01T09:19:21;102306.38;;;26.67;31.85
52839;BME280;39219;53.678;9.856;2022-09-01T09:21:51;102304.25;;;26.57;33.48
52839;BME280;39219;53.678;9.856;2022-09-01T09:24:23;102298.09;;;26.41;33.38
52839;BME280;39219;53.678;9.856;2022-09-01T09:26:53;102302.72;;;26.26;33.92
52839;BME280;39219;53.678;9.856;2022-09-01T09:29:20;102307.38;;;26.09;31.18
52839;BME280;39219;53.678;9.856;2022-09-01T09:31:47;102305.78;;;25.78;32.74
52839;BME280;39219;53.678;9.856;2022-09-01T09:34:17;102297.72;;;25.62;33.34
52839;BME280;39219;53.678;9.856;2022-09-01T09:36:44;102305.94;;;26.18;33.17
52839;BME280;39219;53.678;9.856;2022-09-01T09:39:16;102294.19;;;26.17;32.29
52839;BME280;39219;53.678;9.856;2022-09-01T09:42:01;102295.28;;;26.42;33.19
52839;BME280;39219;53.678;9.856;2022-09-01T09:44:31;102293.41;;;26.01;37.03
52839;BME280;39219;53.678;9.856;2022-09-01T09:46:58;102291.78;;;26.40;33.20
52839;BME280;39219;53.678;9.856;2022-09-01T09:49:26;102295.13;;;26.31;33.49
52839;BME280;39219;53.678;9.856;2022-09-01T09:51:55;102290.91;;;26.40;36.74
52839;BME280;39219;53.678;9.856;2022-09-01T09:54:24;102286.94;;;26.58;32.10
52839;BME280;39219;53.678;9.856;2022-09-01T09:57:08;102275.72;;;25.94;34.61
52839;BME280;39219;53.678;9.856;2022-09-01T09:59:38;102284.81;;;24.75;36.49
52839;BME280;39219;53.678;9.856;2022-09-01T10:02:23;102276.47;;;24.16;37.96
52839;BME280;39219;53.678;9.856;2022-09-01T10:04:51;102269.66;;;23.91;38.67
52839;BME280;39219;53.678;9.856;2022-09-01T10:07:24;102271.50;;;23.90;37.92
52839;BME280;39219;53.678;9.856;2022-09-01T10:09:52;102261.38;;;24.42;38.24
52839;BME280;39219;53.678;9.856;2022-09-01T10:12:21;102252.31;;;25.33;37.05
52839;BME280;39219;53.678;9.856;2022-09-01T10:14:51;102254.88;;;25.51;34.86
52839;BME280;39219;53.678;9.856;2022-09-01T10:17:23;102256.22;;;25.58;35.07
52839;BME280;39219;53.678;9.856;2022-09-01T10:19:54;102250.50;;;25.48;37.01
52839;BME280;39219;53.678;9.856;2022-09-01T10:22:22;102251.28;;;25.65;35.62
52839;BME280;39219;53.678;9.856;2022-09-01T10:24:50;102250.06;;;25.11;36.65
52839;BME280;39219;53.678;9.856;2022-09-01T10:27:21;102246.38;;;25.26;35.29
52839;BME280;39219;53.678;9.856;2022-09-01T10:29:53;102254.13;;;25.49;35.26
52839;BME280;39219;53.678;9.856;2022-09-01T10:32:25;102239.50;;;25.79;36.60
52839;BME280;39219;53.678;9.856;2022-09-01T10:34:53;102241.63;;;26.30;37.62
52839;BME280;39219;53.678;9.856;2022-09-01T10:37:21;102238.66;;;26.48;33.99
52839;BME280;39219;53.678;9.856;2022-09-01T10:40:20;102245.59;;;26.52;33.37
52839;BME280;39219;53.678;9.856;2022-09-01T10:43:24;102240.75;;;26.29;35.19
52839;BME280;39219;53.678;9.856;2022-09-01T10:45:53;102253.31;;;26.32;32.16
52839;BME280;39219;53.678;9.856;2022-09-01T10:48:30;102253.13;;;26.21;31.88
52839;BME280;39219;53.678;9.856;2022-09-01T10:54:01;102241.63;;;26.70;30.74
52839;BME280;39219;53.678;9.856;2022-09-01T10:56:38;102244.44;;;26.28;32.05
52839;BME280;39219;53.678;9.856;2022-09-01T10:59:09;102246.94;;;26.19;32.36
52839;BME280;39219;53.678;9.856;2022-09-01T11:02:11;102242.00;;;26.38;32.82
52839;BME280;39219;53.678;9.856;2022-09-01T11:05:15;102240.88;;;27.09;31.79
52839;BME280;39219;53.678;9.856;2022-09-01T11:07:42;102237.75;;;26.87;31.49
52839;BME280;39219;53.678;9.856;2022-09-01T11:10:27;102238.75;;;26.86;32.16
52839;BME280;39219;53.678;9.856;2022-09-01T11:13:11;102232.97;;;27.17;33.93
52839;BME280;39219;53.678;9.856;2022-09-01T11:15:44;102232.41;;;27.76;34.75
52839;BME280;39219;53.678;9.856;2022-09-01T11:18:14;102238.53;;;28.04;30.38
52839;BME280;39219;53.678;9.856;2022-09-01T11:20:42;102228.59;;;28.16;33.17
52839;BME280;39219;53.678;9.856;2022-09-01T11:23:12;102234.50;;;27.60;30.07
52839;BME280;39219;53.678;9.856;2022-09-01T11:25:46;102233.81;;;26.79;31.45
52839;BME280;39219;53.678;9.856;2022-09-01T11:28:40;102227.19;;;26.83;31.99
52839;BME280;39219;53.678;9.856;2022-09-01T11:31:21;102223.06;;;26.90;31.23
52839;BME280;39219;53.678;9.856;2022-09-01T11:33:55;102229.19;;;26.66;30.51
52839;BME280;39219;53.678;9.856;2022-09-01T11:36:28;102219.41;;;25.67;33.84
52839;BME280;39219;53.678;9.856;2022-09-01T11:39:02;102219.72;;;24.74;35.85
52839;BME280;39219;53.678;9.856;2022-09-01T11:41:34;102218.06;;;24.08;37.53
52839;BME280;39219;53.678;9.856;2022-09-01T11:44:12;102226.53;;;23.86;37.94
52839;BME280;39219;53.678;9.856;2022-09-01T11:46:40;102223.13;;;23.33;38.82
52839;BME280;39219;53.678;9.856;2022-09-01T11:49:25;102213.19;;;23.16;39.16
52839;BME280;39219;53.678;9.856;2022-09-01T11:51:53;102206.75;;;23.01;39.79
52839;BME280;39219;53.678;9.856;2022-09-01T11:54:21;102218.63;;;22.98;40.95
52839;BME280;39219;53.678;9.856;2022-09-01T11:56:48;102207.81;;;22.81;40.52
52839;BME280;39219;53.678;9.856;2022-09-01T11:59:29;102211.47;;;22.62;41.68
52839;BME280;39219;53.678;9.856;2022-09-01T12:01:57;102202.97;;;22.52;41.33
52839;BME280;39219;53.678;9.856;2022-09-01T12:04:29;102209.78;;;22.59;41.97
52839;BME280;39219;53.678;9.856;2022-09-01T12:06:57;102201.84;;;22.91;41.75
52839;BME280;39219;53.678;9.856;2022-09-01T12:09:33;102203.31;;;23.15;40.40
52839;BME280;39219;53.678;9.856;2022-09-01T12:12:01;102200.03;;;23.26;40.15
52839;BME280;39219;53.678;9.856;2022-09-01T12:14:28;102198.81;;;23.65;39.33
52839;BME280;39219;53.678;9.856;2022-09-01T12:16:59;102200.38;;;23.69;38.74
52839;BME280;39219;53.678;9.856;2022-09-01T12:19:28;102200.13;;;24.22;37.74
52839;BME280;39219;53.678;9.856;2022-09-01T12:21:58;102194.03;;;24.79;37.24
52839;BME280;39219;53.678;9.856;2022-09-01T12:24:25;102194.34;;;25.04;37.98
52839;BME280;39219;53.678;9.856;2022-09-01T12:26:54;102190.50;;;25.51;35.61
52839;BME280;39219;53.678;9.856;2022-09-01T12:29:21;102192.09;;;24.96;35.16
52839;BME280;39219;53.678;9.856;2022-09-01T12:31:50;102193.06;;;24.95;37.67
52839;BME280;39219;53.678;9.856;2022-09-01T12:34:37;102184.16;;;25.22;34.99
52839;BME280;39219;53.678;9.856;2022-09-01T12:37:07;102184.72;;;24.98;36.86
52839;BME280;39219;53.678;9.856;2022-09-01T12:39:35;102189.50;;;24.94;35.93
52839;BME280;39219;53.678;9.856;2022-09-01T12:42:08;102182.50;;;24.90;38.54
52839;BME280;39219;53.678;9.856;2022-09-01T12:44:45;102194.41;;;24.88;36.81
52839;BME280;39219;53.678;9.856;2022-09-01T12:47:43;102181.84;;;24.70;37.34
52839;BME280;39219;53.678;9.856;2022-09-01T12:50:05;102180.25;;;24.05;38.53
52839;BME280;39219;53.678;9.856;2022-09-01T12:52:32;102186.25;;;23.30;39.63
52839;BME280;39219;53.678;9.856;2022-09-01T12:55:16;102171.78;;;22.96;40.17
52839;BME280;39219;53.678;9.856;2022-09-01T12:57:47;102179.28;;;22.91;41.34
52839;BME280;39219;53.678;9.856;2022-09-01T13:00:18;102185.16;;;22.99;41.50
52839;BME280;39219;53.678;9.856;2022-09-01T13:02:46;102184.59;;;23.10;42.29
52839;BME280;39219;53.678;9.856;2022-09-01T13:05:22;102174.91;;;23.22;42.79
52839;BME280;39219;53.678;9.856;2022-09-01T13:07:52;102179.16;;;23.28;42.53
52839;BME280;39219;53.678;9.856;2022-09-01T13:10:19;102178.66;;;23.19;43.10
52839;BME280;39219;53.678;9.856;2022-09-01T13:12:46;102188.59;;;23.03;43.35